sensor_id;sensor_type;location;lat;lon;timestamp;temperature;humidity
67799;SHT30;54596;43.216;27.904;2023-03-19T00:01:52;7.92;86.58
67799;SHT30;54596;43.216;27.904;2023-03-19T00:04:19;7.89;86.72
67799;SHT30;54596;43.216;27.904;2023-03-19T00:06:44;7.82;86.44
67799;SHT30;54596;43.216;27.904;2023-03-19T00:09:10;7.89;86.49
67799;SHT30;54596;43.216;27.904;2023-03-19T00:11:36;7.86;86.17
67799;SHT30;54596;43.216;27.904;2023-03-19T00:14:01;7.96;86.28
67799;SHT30;54596;43.216;27.904;2023-03-19T00:16:27;7.99;86.03
67799;SHT30;54596;43.216;27.904;2023-03-19T00:18:53;7.96;86.18
67799;SHT30;54596;43.216;27.904;2023-03-19T00:21:19;7.90;85.80
67799;SHT30;54596;43.216;27.904;2023-03-19T00:23:44;7.81;86.00
67799;SHT30;54596;43.216;27.904;2023-03-19T00:26:10;7.81;86.19
67799;SHT30;54596;43.216;27.904;2023-03-19T00:28:36;7.78;86.41
67799;SHT30;54596;43.216;27.904;2023-03-19T00:31:14;7.81;86.15
67799;SHT30;54596;43.216;27.904;2023-03-19T00:33:41;7.83;86.25
67799;SHT30;54596;43.216;27.904;2023-03-19T00:36:07;7.89;86.15
67799;SHT30;54596;43.216;27.904;2023-03-19T00:38:33;7.86;86.09
67799;SHT30;54596;43.216;27.904;2023-03-19T00:41:00;7.82;86.35
67799;SHT30;54596;43.216;27.904;2023-03-19T00:43:26;7.81;86.27
67799;SHT30;54596;43.216;27.904;2023-03-19T00:45:52;7.79;86.32
67799;SHT30;54596;43.216;27.904;2023-03-19T00:48:17;7.83;86.07
67799;SHT30;54596;43.216;27.904;2023-03-19T00:50:43;7.76;86.29
67799;SHT30;54596;43.216;27.904;2023-03-19T00:53:09;7.85;86.20
67799;SHT30;54596;43.216;27.904;2023-03-19T00:55:34;7.87;85.69
67799;SHT30;54596;43.216;27.904;2023-03-19T00:58:00;7.85;85.68
67799;SHT30;54596;43.216;27.904;2023-03-19T01:00:26;7.85;85.65
67799;SHT30;54596;43.216;27.904;2023-03-19T01:02:52;7.78;85.93
67799;SHT30;54596;43.216;27.904;2023-03-19T01:05:19;7.83;85.92
67799;SHT30;54596;43.216;27.904;2023-03-19T01:07:44;7.81;85.94
67799;SHT30;54596;43.216;27.904;2023-03-19T01:10:10;7.81;85.72
67799;SHT30;54596;43.216;27.904;2023-03-19T01:12:36;7.87;85.86
67799;SHT30;54596;43.216;27.904;2023-03-19T01:15:02;7.85;85.81
67799;SHT30;54596;43.216;27.904;2023-03-19T01:17:28;7.87;85.83
67799;SHT30;54596;43.216;27.904;2023-03-19T01:19:54;7.85;85.92
67799;SHT30;54596;43.216;27.904;2023-03-19T01:22:19;7.82;86.03
67799;SHT30;54596;43.216;27.904;2023-03-19T01:24:45;7.87;85.82
67799;SHT30;54596;43.216;27.904;2023-03-19T01:27:12;7.87;85.77
67799;SHT30;54596;43.216;27.904;2023-03-19T01:29:37;7.87;86.09
67799;SHT30;54596;43.216;27.904;2023-03-19T01:32:03;7.90;85.96
67799;SHT30;54596;43.216;27.904;2023-03-19T01:34:28;7.89;85.88
67799;SHT30;54596;43.216;27.904;2023-03-19T01:36:53;7.92;86.12
67799;SHT30;54596;43.216;27.904;2023-03-19T01:39:19;7.90;85.64
67799;SHT30;54596;43.216;27.904;2023-03-19T01:41:45;7.93;85.20
67799;SHT30;54596;43.216;27.904;2023-03-19T01:46:48;7.86;85.00
67799;SHT30;54596;43.216;27.904;2023-03-19T01:49:14;7.86;85.29
67799;SHT30;54596;43.216;27.904;2023-03-19T01:51:42;7.81;85.63
67799;SHT30;54596;43.216;27.904;2023-03-19T01:54:13;7.79;85.49
67799;SHT30;54596;43.216;27.904;2023-03-19T01:56:41;7.81;85.50
67799;SHT30;54596;43.216;27.904;2023-03-19T01:59:15;7.82;85.44
67799;SHT30;54596;43.216;27.904;2023-03-19T02:02:00;7.78;85.31
67799;SHT30;54596;43.216;27.904;2023-03-19T02:04:28;7.79;85.40
67799;SHT30;54596;43.216;27.904;2023-03-19T02:06:57;7.76;85.36
67799;SHT30;54596;43.216;27.904;2023-03-19T02:09:24;7.82;85.35
67799;SHT30;54596;43.216;27.904;2023-03-19T02:11:50;7.79;85.53
67799;SHT30;54596;43.216;27.904;2023-03-19T02:14:16;7.78;85.69
67799;SHT30;54596;43.216;27.904;2023-03-19T02:16:42;7.79;85.57
67799;SHT30;54596;43.216;27.904;2023-03-19T02:19:11;7.75;85.48
67799;SHT30;54596;43.216;27.904;2023-03-19T02:21:37;7.76;85.59
67799;SHT30;54596;43.216;27.904;2023-03-19T02:24:20;7.72;85.67
67799;SHT30;54596;43.216;27.904;2023-03-19T02:26:47;7.71;85.86
67799;SHT30;54596;43.216;27.904;2023-03-19T02:29:14;7.66;86.02
67799;SHT30;54596;43.216;27.904;2023-03-19T02:31:40;7.64;86.04
67799;SHT30;54596;43.216;27.904;2023-03-19T02:36:44;7.72;85.95
67799;SHT30;54596;43.216;27.904;2023-03-19T02:39:49;7.78;85.79
67799;SHT30;54596;43.216;27.904;2023-03-19T02:42:17;7.79;86.09
67799;SHT30;54596;43.216;27.904;2023-03-19T02:44:44;7.72;86.03
67799;SHT30;54596;43.216;27.904;2023-03-19T02:47:10;7.74;86.13
67799;SHT30;54596;43.216;27.904;2023-03-19T02:49:36;7.74;86.13
67799;SHT30;54596;43.216;27.904;2023-03-19T02:52:01;7.78;86.03
67799;SHT30;54596;43.216;27.904;2023-03-19T02:54:26;7.72;86.36
67799;SHT30;54596;43.216;27.904;2023-03-19T02:56:52;7.71;86.22
67799;SHT30;54596;43.216;27.904;2023-03-19T02:59:18;7.71;86.33
67799;SHT30;54596;43.216;27.904;2023-03-19T03:01:44;7.74;86.10
67799;SHT30;54596;43.216;27.904;2023-03-19T03:04:10;7.68;86.15
67799;SHT30;54596;43.216;27.904;2023-03-19T03:06:36;7.68;86.08
67799;SHT30;54596;43.216;27.904;2023-03-19T03:09:02;7.74;85.96
67799;SHT30;54596;43.216;27.904;2023-03-19T03:11:28;7.71;85.97
67799;SHT30;54596;43.216;27.904;2023-03-19T03:13:53;7.75;85.95
67799;SHT30;54596;43.216;27.904;2023-03-19T03:16:19;7.79;85.85
67799;SHT30;54596;43.216;27.904;2023-03-19T03:18:45;7.79;85.67
67799;SHT30;54596;43.216;27.904;2023-03-19T03:21:11;7.76;85.69
67799;SHT30;54596;43.216;27.904;2023-03-19T03:23:36;7.79;85.79
67799;SHT30;54596;43.216;27.904;2023-03-19T03:26:02;7.81;85.86
67799;SHT30;54596;43.216;27.904;2023-03-19T03:28:28;7.79;85.65
67799;SHT30;54596;43.216;27.904;2023-03-19T03:31:00;7.74;85.63
67799;SHT30;54596;43.216;27.904;2023-03-19T03:33:27;7.76;85.66
67799;SHT30;54596;43.216;27.904;2023-03-19T03:35:52;7.78;85.52
67799;SHT30;54596;43.216;27.904;2023-03-19T03:38:18;7.75;85.64
67799;SHT30;54596;43.216;27.904;2023-03-19T03:40:44;7.72;85.70
67799;SHT30;54596;43.216;27.904;2023-03-19T03:43:09;7.66;85.71
67799;SHT30;54596;43.216;27.904;2023-03-19T03:45:35;7.68;85.86
67799;SHT30;54596;43.216;27.904;2023-03-19T03:48:01;7.62;85.66
67799;SHT30;54596;43.216;27.904;2023-03-19T03:50:27;7.64;85.40
67799;SHT30;54596;43.216;27.904;2023-03-19T03:52:53;7.65;85.47
67799;SHT30;54596;43.216;27.904;2023-03-19T03:55:18;7.61;85.36
67799;SHT30;54596;43.216;27.904;2023-03-19T03:57:44;7.62;85.33
67799;SHT30;54596;43.216;27.904;2023-03-19T04:00:10;7.64;85.28
67799;SHT30;54596;43.216;27.904;2023-03-19T04:02:36;7.62;85.15
67799;SHT30;54596;43.216;27.904;2023-03-19T04:05:02;7.65;85.29
67799;SHT30;54596;43.216;27.904;2023-03-19T04:07:27;7.62;85.22
67799;SHT30;54596;43.216;27.904;2023-03-19T04:09:53;7.66;85.16
67799;SHT30;54596;43.216;27.904;2023-03-19T04:12:19;7.65;84.97
67799;SHT30;54596;43.216;27.904;2023-03-19T04:14:45;7.68;84.73
67799;SHT30;54596;43.216;27.904;2023-03-19T04:17:10;7.64;84.91
67799;SHT30;54596;43.216;27.904;2023-03-19T04:19:36;7.64;84.81
67799;SHT30;54596;43.216;27.904;2023-03-19T04:22:01;7.47;85.08
67799;SHT30;54596;43.216;27.904;2023-03-19T04:24:28;7.46;85.22
67799;SHT30;54596;43.216;27.904;2023-03-19T04:26:53;7.51;85.29
67799;SHT30;54596;43.216;27.904;2023-03-19T04:29:19;7.57;84.95
67799;SHT30;54596;43.216;27.904;2023-03-19T04:31:45;7.59;84.95
67799;SHT30;54596;43.216;27.904;2023-03-19T04:34:11;7.62;84.93
67799;SHT30;54596;43.216;27.904;2023-03-19T04:36:37;7.55;84.86
67799;SHT30;54596;43.216;27.904;2023-03-19T04:39:03;7.61;84.83
67799;SHT30;54596;43.216;27.904;2023-03-19T04:41:29;7.57;85.01
67799;SHT30;54596;43.216;27.904;2023-03-19T04:43:54;7.50;85.29
67799;SHT30;54596;43.216;27.904;2023-03-19T04:46:19;7.52;85.38
67799;SHT30;54596;43.216;27.904;2023-03-19T04:48:45;7.51;85.66
67799;SHT30;54596;43.216;27.904;2023-03-19T04:51:11;7.61;85.49
67799;SHT30;54596;43.216;27.904;2023-03-19T04:53:36;7.61;85.48
67799;SHT30;54596;43.216;27.904;2023-03-19T04:56:03;7.69;85.34
67799;SHT30;54596;43.216;27.904;2023-03-19T04:58:29;7.68;85.37
67799;SHT30;54596;43.216;27.904;2023-03-19T05:00:54;7.74;85.12
67799;SHT30;54596;43.216;27.904;2023-03-19T05:03:20;7.79;85.06
67799;SHT30;54596;43.216;27.904;2023-03-19T05:05:46;7.81;85.18
67799;SHT30;54596;43.216;27.904;2023-03-19T05:08:12;7.83;85.12
67799;SHT30;54596;43.216;27.904;2023-03-19T05:10:38;7.79;85.31
67799;SHT30;54596;43.216;27.904;2023-03-19T05:13:04;7.78;85.45
67799;SHT30;54596;43.216;27.904;2023-03-19T05:15:30;7.78;85.61
67799;SHT30;54596;43.216;27.904;2023-03-19T05:17:55;7.83;85.31
67799;SHT30;54596;43.216;27.904;2023-03-19T05:20:21;7.81;85.20
67799;SHT30;54596;43.216;27.904;2023-03-19T05:22:47;7.79;84.83
67799;SHT30;54596;43.216;27.904;2023-03-19T05:25:13;7.76;84.72
67799;SHT30;54596;43.216;27.904;2023-03-19T05:27:39;7.78;85.06
67799;SHT30;54596;43.216;27.904;2023-03-19T05:30:06;7.79;85.08
67799;SHT30;54596;43.216;27.904;2023-03-19T05:32:32;7.85;84.92
67799;SHT30;54596;43.216;27.904;2023-03-19T05:34:58;7.92;84.76
67799;SHT30;54596;43.216;27.904;2023-03-19T05:37:24;7.94;84.43
67799;SHT30;54596;43.216;27.904;2023-03-19T05:39:50;7.97;83.86
67799;SHT30;54596;43.216;27.904;2023-03-19T05:42:16;7.94;83.54
67799;SHT30;54596;43.216;27.904;2023-03-19T05:44:42;8.06;83.39
67799;SHT30;54596;43.216;27.904;2023-03-19T05:47:09;8.03;83.07
67799;SHT30;54596;43.216;27.904;2023-03-19T05:49:36;8.09;82.74
67799;SHT30;54596;43.216;27.904;2023-03-19T05:52:01;8.10;82.75
67799;SHT30;54596;43.216;27.904;2023-03-19T05:54:27;8.07;82.78
67799;SHT30;54596;43.216;27.904;2023-03-19T05:56:53;8.13;82.54
67799;SHT30;54596;43.216;27.904;2023-03-19T05:59:19;8.16;82.61
67799;SHT30;54596;43.216;27.904;2023-03-19T06:01:44;8.17;82.55
67799;SHT30;54596;43.216;27.904;2023-03-19T06:04:10;8.19;82.43
67799;SHT30;54596;43.216;27.904;2023-03-19T06:06:35;8.23;82.33
67799;SHT30;54596;43.216;27.904;2023-03-19T06:09:01;8.33;82.06
67799;SHT30;54596;43.216;27.904;2023-03-19T06:11:27;8.33;81.65
67799;SHT30;54596;43.216;27.904;2023-03-19T06:13:52;8.37;81.63
67799;SHT30;54596;43.216;27.904;2023-03-19T06:16:18;8.44;81.06
67799;SHT30;54596;43.216;27.904;2023-03-19T06:18:43;8.47;81.87
67799;SHT30;54596;43.216;27.904;2023-03-19T06:21:10;8.47;80.76
67799;SHT30;54596;43.216;27.904;2023-03-19T06:23:36;8.38;80.18
67799;SHT30;54596;43.216;27.904;2023-03-19T06:28:39;8.58;79.90
67799;SHT30;54596;43.216;27.904;2023-03-19T06:31:05;8.61;79.72
67799;SHT30;54596;43.216;27.904;2023-03-19T06:33:31;8.59;79.55
67799;SHT30;54596;43.216;27.904;2023-03-19T06:35:58;8.66;79.25
67799;SHT30;54596;43.216;27.904;2023-03-19T06:38:23;8.65;79.45
67799;SHT30;54596;43.216;27.904;2023-03-19T06:40:49;8.75;79.14
67799;SHT30;54596;43.216;27.904;2023-03-19T06:43:15;8.75;79.52
67799;SHT30;54596;43.216;27.904;2023-03-19T06:45:41;8.72;79.07
67799;SHT30;54596;43.216;27.904;2023-03-19T06:48:07;8.56;78.49
67799;SHT30;54596;43.216;27.904;2023-03-19T06:50:32;8.64;78.38
67799;SHT30;54596;43.216;27.904;2023-03-19T06:52:58;8.71;78.15
67799;SHT30;54596;43.216;27.904;2023-03-19T06:55:23;8.79;77.95
67799;SHT30;54596;43.216;27.904;2023-03-19T06:57:49;8.75;77.48
67799;SHT30;54596;43.216;27.904;2023-03-19T07:00:15;8.68;77.49
67799;SHT30;54596;43.216;27.904;2023-03-19T07:02:41;8.66;77.60
67799;SHT30;54596;43.216;27.904;2023-03-19T07:05:08;8.65;77.77
67799;SHT30;54596;43.216;27.904;2023-03-19T07:07:33;8.68;77.55
67799;SHT30;54596;43.216;27.904;2023-03-19T07:09:59;8.54;77.79
67799;SHT30;54596;43.216;27.904;2023-03-19T07:12:24;8.55;78.16
67799;SHT30;54596;43.216;27.904;2023-03-19T07:14:53;8.55;77.99
67799;SHT30;54596;43.216;27.904;2023-03-19T07:17:20;8.48;78.12
67799;SHT30;54596;43.216;27.904;2023-03-19T07:19:46;8.54;78.33
67799;SHT30;54596;43.216;27.904;2023-03-19T07:22:11;8.56;78.27
67799;SHT30;54596;43.216;27.904;2023-03-19T07:24:37;8.55;78.47
67799;SHT30;54596;43.216;27.904;2023-03-19T07:27:02;8.58;78.68
67799;SHT30;54596;43.216;27.904;2023-03-19T07:29:28;8.68;78.46
67799;SHT30;54596;43.216;27.904;2023-03-19T07:31:53;8.77;78.30
67799;SHT30;54596;43.216;27.904;2023-03-19T07:34:19;8.80;78.16
67799;SHT30;54596;43.216;27.904;2023-03-19T07:36:44;8.83;77.97
67799;SHT30;54596;43.216;27.904;2023-03-19T07:39:11;8.89;77.55
67799;SHT30;54596;43.216;27.904;2023-03-19T07:41:37;8.92;77.58
67799;SHT30;54596;43.216;27.904;2023-03-19T07:44:02;8.93;77.51
67799;SHT30;54596;43.216;27.904;2023-03-19T07:46:29;8.86;77.61
67799;SHT30;54596;43.216;27.904;2023-03-19T07:48:55;8.94;77.56
67799;SHT30;54596;43.216;27.904;2023-03-19T07:51:21;8.87;77.87
67799;SHT30;54596;43.216;27.904;2023-03-19T07:53:47;8.79;77.79
67799;SHT30;54596;43.216;27.904;2023-03-19T07:56:13;8.87;77.75
67799;SHT30;54596;43.216;27.904;2023-03-19T07:58:38;8.90;77.34
67799;SHT30;54596;43.216;27.904;2023-03-19T08:01:04;8.96;77.50
67799;SHT30;54596;43.216;27.904;2023-03-19T08:03:30;9.03;77.05
67799;SHT30;54596;43.216;27.904;2023-03-19T08:05:55;9.04;77.19
67799;SHT30;54596;43.216;27.904;2023-03-19T08:08:21;9.13;77.01
67799;SHT30;54596;43.216;27.904;2023-03-19T08:10:46;9.13;76.86
67799;SHT30;54596;43.216;27.904;2023-03-19T08:13:12;9.20;76.55
67799;SHT30;54596;43.216;27.904;2023-03-19T08:15:38;9.13;76.65
67799;SHT30;54596;43.216;27.904;2023-03-19T08:18:04;9.34;76.43
67799;SHT30;54596;43.216;27.904;2023-03-19T08:20:30;9.48;76.20
67799;SHT30;54596;43.216;27.904;2023-03-19T08:22:56;9.51;75.65
67799;SHT30;54596;43.216;27.904;2023-03-19T08:25:23;9.62;75.29
67799;SHT30;54596;43.216;27.904;2023-03-19T08:27:49;10.52;73.48
67799;SHT30;54596;43.216;27.904;2023-03-19T08:30:15;10.70;72.69
67799;SHT30;54596;43.216;27.904;2023-03-19T08:32:41;10.83;72.32
67799;SHT30;54596;43.216;27.904;2023-03-19T08:35:09;10.72;72.73
67799;SHT30;54596;43.216;27.904;2023-03-19T08:37:35;10.66;72.27
67799;SHT30;54596;43.216;27.904;2023-03-19T08:40:01;10.81;72.34
67799;SHT30;54596;43.216;27.904;2023-03-19T08:42:27;10.66;72.30
67799;SHT30;54596;43.216;27.904;2023-03-19T08:44:53;10.76;72.19
67799;SHT30;54596;43.216;27.904;2023-03-19T08:47:18;10.80;72.05
67799;SHT30;54596;43.216;27.904;2023-03-19T08:49:49;10.83;72.03
67799;SHT30;54596;43.216;27.904;2023-03-19T08:52:14;11.11;70.97
67799;SHT30;54596;43.216;27.904;2023-03-19T08:54:39;10.99;71.57
67799;SHT30;54596;43.216;27.904;2023-03-19T08:57:05;11.07;71.71
67799;SHT30;54596;43.216;27.904;2023-03-19T08:59:30;11.06;71.75
67799;SHT30;54596;43.216;27.904;2023-03-19T09:01:56;11.07;71.68
67799;SHT30;54596;43.216;27.904;2023-03-19T09:04:22;11.08;71.76
67799;SHT30;54596;43.216;27.904;2023-03-19T09:06:48;11.06;72.08
67799;SHT30;54596;43.216;27.904;2023-03-19T09:09:20;11.03;71.77
67799;SHT30;54596;43.216;27.904;2023-03-19T09:11:46;11.00;71.69
67799;SHT30;54596;43.216;27.904;2023-03-19T09:14:12;10.94;71.69
67799;SHT30;54596;43.216;27.904;2023-03-19T09:16:39;10.76;72.09
67799;SHT30;54596;43.216;27.904;2023-03-19T09:19:05;10.70;72.81
67799;SHT30;54596;43.216;27.904;2023-03-19T09:21:31;10.60;73.05
67799;SHT30;54596;43.216;27.904;2023-03-19T09:23:56;10.66;72.81
67799;SHT30;54596;43.216;27.904;2023-03-19T09:26:22;10.63;72.62
67799;SHT30;54596;43.216;27.904;2023-03-19T09:28:47;10.53;72.84
67799;SHT30;54596;43.216;27.904;2023-03-19T09:31:13;10.66;73.11
67799;SHT30;54596;43.216;27.904;2023-03-19T09:33:38;10.67;72.87
67799;SHT30;54596;43.216;27.904;2023-03-19T09:36:04;10.66;72.66
67799;SHT30;54596;43.216;27.904;2023-03-19T09:38:29;10.56;73.12
67799;SHT30;54596;43.216;27.904;2023-03-19T09:46:44;10.77;72.95
67799;SHT30;54596;43.216;27.904;2023-03-19T09:49:12;10.77;72.69
67799;SHT30;54596;43.216;27.904;2023-03-19T09:54:28;10.77;72.06
67799;SHT30;54596;43.216;27.904;2023-03-19T09:56:55;10.79;72.47
67799;SHT30;54596;43.216;27.904;2023-03-19T09:59:22;10.66;72.77
67799;SHT30;54596;43.216;27.904;2023-03-19T10:01:54;10.79;72.74
67799;SHT30;54596;43.216;27.904;2023-03-19T10:07:00;10.77;72.66
67799;SHT30;54596;43.216;27.904;2023-03-19T10:15:07;11.18;72.04
67799;SHT30;54596;43.216;27.904;2023-03-19T10:17:41;11.31;71.42
67799;SHT30;54596;43.216;27.904;2023-03-19T10:20:16;11.28;71.17
67799;SHT30;54596;43.216;27.904;2023-03-19T10:22:52;11.31;71.24
67799;SHT30;54596;43.216;27.904;2023-03-19T10:25:22;11.32;70.69
67799;SHT30;54596;43.216;27.904;2023-03-19T10:27:59;11.43;70.84
67799;SHT30;54596;43.216;27.904;2023-03-19T10:30:25;11.46;70.66
67799;SHT30;54596;43.216;27.904;2023-03-19T10:33:21;11.56;70.84
67799;SHT30;54596;43.216;27.904;2023-03-19T10:35:54;11.61;70.35
67799;SHT30;54596;43.216;27.904;2023-03-19T10:38:24;11.73;70.11
67799;SHT30;54596;43.216;27.904;2023-03-19T10:43:40;11.55;70.52
67799;SHT30;54596;43.216;27.904;2023-03-19T10:46:11;11.66;70.32
67799;SHT30;54596;43.216;27.904;2023-03-19T10:48:43;11.63;70.38
67799;SHT30;54596;43.216;27.904;2023-03-19T10:51:13;11.69;70.48
67799;SHT30;54596;43.216;27.904;2023-03-19T10:53:39;11.76;70.36
67799;SHT30;54596;43.216;27.904;2023-03-19T10:56:06;11.77;70.62
67799;SHT30;54596;43.216;27.904;2023-03-19T10:58:39;11.84;70.54
67799;SHT30;54596;43.216;27.904;2023-03-19T11:01:11;11.66;70.31
67799;SHT30;54596;43.216;27.904;2023-03-19T11:03:38;11.65;70.54
67799;SHT30;54596;43.216;27.904;2023-03-19T11:06:27;11.67;70.75
67799;SHT30;54596;43.216;27.904;2023-03-19T11:11:43;11.70;70.63
67799;SHT30;54596;43.216;27.904;2023-03-19T11:14:20;11.66;70.65
67799;SHT30;54596;43.216;27.904;2023-03-19T11:16:59;11.67;71.00
67799;SHT30;54596;43.216;27.904;2023-03-19T11:19:31;11.79;70.73
67799;SHT30;54596;43.216;27.904;2023-03-19T11:22:35;11.79;70.67
67799;SHT30;54596;43.216;27.904;2023-03-19T11:25:24;11.74;70.42
67799;SHT30;54596;43.216;27.904;2023-03-19T11:33:29;11.79;70.00
67799;SHT30;54596;43.216;27.904;2023-03-19T11:36:20;12.02;69.56
67799;SHT30;54596;43.216;27.904;2023-03-19T11:39:04;12.10;69.43
67799;SHT30;54596;43.216;27.904;2023-03-19T11:41:58;12.01;69.70
67799;SHT30;54596;43.216;27.904;2023-03-19T11:53:20;12.18;69.87
67799;SHT30;54596;43.216;27.904;2023-03-19T12:01:14;12.15;69.18
67799;SHT30;54596;43.216;27.904;2023-03-19T12:04:00;11.84;70.31
67799;SHT30;54596;43.216;27.904;2023-03-19T12:09:46;11.63;71.27
67799;SHT30;54596;43.216;27.904;2023-03-19T12:12:25;11.76;70.98
67799;SHT30;54596;43.216;27.904;2023-03-19T12:15:24;11.91;70.32
67799;SHT30;54596;43.216;27.904;2023-03-19T12:18:01;12.04;69.85
67799;SHT30;54596;43.216;27.904;2023-03-19T12:21:00;12.21;69.56
67799;SHT30;54596;43.216;27.904;2023-03-19T12:26:07;12.18;69.12
67799;SHT30;54596;43.216;27.904;2023-03-19T12:31:41;11.97;69.27
67799;SHT30;54596;43.216;27.904;2023-03-19T12:34:19;11.87;69.90
67799;SHT30;54596;43.216;27.904;2023-03-19T12:36:56;12.02;69.64
67799;SHT30;54596;43.216;27.904;2023-03-19T12:39:31;12.07;69.86
67799;SHT30;54596;43.216;27.904;2023-03-19T12:41:59;12.22;69.98
67799;SHT30;54596;43.216;27.904;2023-03-19T12:44:39;12.32;69.52
67799;SHT30;54596;43.216;27.904;2023-03-19T12:47:26;12.10;69.46
67799;SHT30;54596;43.216;27.904;2023-03-19T12:52:37;11.97;70.12
67799;SHT30;54596;43.216;27.904;2023-03-19T13:03:36;11.39;71.53
67799;SHT30;54596;43.216;27.904;2023-03-19T13:06:14;11.54;71.67
67799;SHT30;54596;43.216;27.904;2023-03-19T13:08:50;11.49;71.19
67799;SHT30;54596;43.216;27.904;2023-03-19T13:12:05;11.39;71.68
67799;SHT30;54596;43.216;27.904;2023-03-19T13:17:27;11.52;71.18
67799;SHT30;54596;43.216;27.904;2023-03-19T13:19:54;11.61;70.83
67799;SHT30;54596;43.216;27.904;2023-03-19T13:22:34;11.69;70.71
67799;SHT30;54596;43.216;27.904;2023-03-19T13:25:01;11.61;70.83
67799;SHT30;54596;43.216;27.904;2023-03-19T13:27:32;11.65;70.81
67799;SHT30;54596;43.216;27.904;2023-03-19T13:35:37;11.73;70.41
67799;SHT30;54596;43.216;27.904;2023-03-19T13:40:50;11.70;70.89
67799;SHT30;54596;43.216;27.904;2023-03-19T13:43:39;11.59;71.15
67799;SHT30;54596;43.216;27.904;2023-03-19T13:56:19;11.31;72.98
67799;SHT30;54596;43.216;27.904;2023-03-19T13:59:17;11.38;72.91
67799;SHT30;54596;43.216;27.904;2023-03-19T14:01:40;11.40;72.20
67799;SHT30;54596;43.216;27.904;2023-03-19T14:06:46;11.35;72.07
67799;SHT30;54596;43.216;27.904;2023-03-19T14:12:18;11.24;72.98
67799;SHT30;54596;43.216;27.904;2023-03-19T14:14:48;11.22;73.07
67799;SHT30;54596;43.216;27.904;2023-03-19T14:17:52;11.20;73.16
67799;SHT30;54596;43.216;27.904;2023-03-19T14:23:01;11.07;73.35
67799;SHT30;54596;43.216;27.904;2023-03-19T14:31:34;10.94;73.81
67799;SHT30;54596;43.216;27.904;2023-03-19T14:36:40;10.76;74.06
67799;SHT30;54596;43.216;27.904;2023-03-19T14:39:28;10.76;74.15
67799;SHT30;54596;43.216;27.904;2023-03-19T14:42:05;10.72;74.14
67799;SHT30;54596;43.216;27.904;2023-03-19T14:47:25;10.60;74.50
67799;SHT30;54596;43.216;27.904;2023-03-19T14:52:48;10.46;74.69
67799;SHT30;54596;43.216;27.904;2023-03-19T14:55:16;10.48;74.85
67799;SHT30;54596;43.216;27.904;2023-03-19T14:57:44;10.45;74.82
67799;SHT30;54596;43.216;27.904;2023-03-19T15:00:17;10.49;74.73
67799;SHT30;54596;43.216;27.904;2023-03-19T15:02:48;10.46;74.82
67799;SHT30;54596;43.216;27.904;2023-03-19T15:05:31;10.46;74.97
67799;SHT30;54596;43.216;27.904;2023-03-19T15:08:12;10.48;74.89
67799;SHT30;54596;43.216;27.904;2023-03-19T15:18:50;10.24;75.25
67799;SHT30;54596;43.216;27.904;2023-03-19T15:21:16;10.24;75.42
67799;SHT30;54596;43.216;27.904;2023-03-19T15:23:44;10.22;77.21
67799;SHT30;54596;43.216;27.904;2023-03-19T15:26:10;9.98;78.55
67799;SHT30;54596;43.216;27.904;2023-03-19T15:28:50;9.78;79.58
67799;SHT30;54596;43.216;27.904;2023-03-19T15:31:17;9.73;79.93
67799;SHT30;54596;43.216;27.904;2023-03-19T15:33:45;9.59;80.41
67799;SHT30;54596;43.216;27.904;2023-03-19T15:38:52;9.42;80.83
67799;SHT30;54596;43.216;27.904;2023-03-19T15:41:19;9.35;81.20
67799;SHT30;54596;43.216;27.904;2023-03-19T15:43:47;9.21;81.44
67799;SHT30;54596;43.216;27.904;2023-03-19T15:46:17;9.18;81.70
67799;SHT30;54596;43.216;27.904;2023-03-19T15:48:49;9.11;81.80
67799;SHT30;54596;43.216;27.904;2023-03-19T15:51:18;9.04;82.19
67799;SHT30;54596;43.216;27.904;2023-03-19T15:53:46;9.01;82.54
67799;SHT30;54596;43.216;27.904;2023-03-19T15:56:13;9.00;82.69
67799;SHT30;54596;43.216;27.904;2023-03-19T15:58:45;8.96;83.34
67799;SHT30;54596;43.216;27.904;2023-03-19T16:01:13;8.90;83.49
67799;SHT30;54596;43.216;27.904;2023-03-19T16:03:54;8.89;83.59
67799;SHT30;54596;43.216;27.904;2023-03-19T16:06:20;8.92;83.47
67799;SHT30;54596;43.216;27.904;2023-03-19T16:08:49;8.87;84.34
67799;SHT30;54596;43.216;27.904;2023-03-19T16:11:26;8.75;85.58
67799;SHT30;54596;43.216;27.904;2023-03-19T16:13:57;8.79;86.16
67799;SHT30;54596;43.216;27.904;2023-03-19T16:16:25;8.76;87.06
67799;SHT30;54596;43.216;27.904;2023-03-19T16:18:54;8.73;88.01
67799;SHT30;54596;43.216;27.904;2023-03-19T16:21:36;8.68;88.61
67799;SHT30;54596;43.216;27.904;2023-03-19T16:24:13;8.55;89.74
67799;SHT30;54596;43.216;27.904;2023-03-19T16:26:45;8.45;89.94
67799;SHT30;54596;43.216;27.904;2023-03-19T16:32:27;8.44;90.16
67799;SHT30;54596;43.216;27.904;2023-03-19T16:34:40;8.42;90.09
67799;SHT30;54596;43.216;27.904;2023-03-19T16:39:57;8.24;90.85
67799;SHT30;54596;43.216;27.904;2023-03-19T16:45:01;8.28;90.79
67799;SHT30;54596;43.216;27.904;2023-03-19T16:47:27;8.23;90.99
67799;SHT30;54596;43.216;27.904;2023-03-19T16:49:53;8.28;90.76
67799;SHT30;54596;43.216;27.904;2023-03-19T16:52:23;8.19;91.12
67799;SHT30;54596;43.216;27.904;2023-03-19T16:54:49;8.19;91.09
67799;SHT30;54596;43.216;27.904;2023-03-19T16:57:16;8.19;90.96
67799;SHT30;54596;43.216;27.904;2023-03-19T16:59:44;8.21;91.09
67799;SHT30;54596;43.216;27.904;2023-03-19T17:02:15;8.21;91.40
67799;SHT30;54596;43.216;27.904;2023-03-19T17:04:41;8.23;91.04
67799;SHT30;54596;43.216;27.904;2023-03-19T17:07:07;8.19;91.25
67799;SHT30;54596;43.216;27.904;2023-03-19T17:09:33;8.19;91.26
67799;SHT30;54596;43.216;27.904;2023-03-19T17:11:59;8.10;91.32
67799;SHT30;54596;43.216;27.904;2023-03-19T17:14:26;8.13;91.31
67799;SHT30;54596;43.216;27.904;2023-03-19T17:16:51;8.06;91.36
67799;SHT30;54596;43.216;27.904;2023-03-19T17:19:34;8.03;91.37
67799;SHT30;54596;43.216;27.904;2023-03-19T17:22:00;8.06;90.86
67799;SHT30;54596;43.216;27.904;2023-03-19T17:24:33;7.99;90.91
67799;SHT30;54596;43.216;27.904;2023-03-19T17:27:01;7.99;90.97
67799;SHT30;54596;43.216;27.904;2023-03-19T17:29:27;7.96;91.14
67799;SHT30;54596;43.216;27.904;2023-03-19T17:31:55;7.90;91.34
67799;SHT30;54596;43.216;27.904;2023-03-19T17:34:23;7.92;91.31
67799;SHT30;54596;43.216;27.904;2023-03-19T17:36:55;7.90;91.13
67799;SHT30;54596;43.216;27.904;2023-03-19T17:39:25;7.87;91.02
67799;SHT30;54596;43.216;27.904;2023-03-19T17:41:51;7.93;91.09
67799;SHT30;54596;43.216;27.904;2023-03-19T17:44:19;7.92;90.89
67799;SHT30;54596;43.216;27.904;2023-03-19T17:46:48;8.02;90.55
67799;SHT30;54596;43.216;27.904;2023-03-19T17:49:20;7.93;90.53